Aviation Digital Data Service (ADDS)

Output produced by METARs form (0748 UTC 18 February 2019)
found at http://www.aviationweather.gov/metar/data/
 
Forecast for: ZLLL (LANZHOU , CN)
Text: TAF ZLLL 180301Z 1806/1906 21003MPS 5000 BR NSC TX01/1808Z TNM13/23Z
Forecast period: 0600 UTC 18 February 2019 to 0600 UTC 19 February 2019
Forecast type: FROM: standard forecast or significant change
Winds: from the SSW (210 degrees) at 7 MPH (6 knots; 3.1 m/s)
Visibility: 3 miles (5 km)
Ceiling: unknown
Clouds: missing
Weather: BR  (mist)